sensor_id;sensor_type;location;lat;lon;timestamp;temperature;humidity
83102;SHT31;72973;51.784;4.660;2024-01-27T00:00:12;4.72;80.59
83102;SHT31;72973;51.784;4.660;2024-01-27T00:02:40;4.73;80.24
83102;SHT31;72973;51.784;4.660;2024-01-27T00:05:07;4.65;80.00
83102;SHT31;72973;51.784;4.660;2024-01-27T00:07:34;4.56;79.90
83102;SHT31;72973;51.784;4.660;2024-01-27T00:10:02;4.52;80.19
83102;SHT31;72973;51.784;4.660;2024-01-27T00:12:28;4.58;80.30
83102;SHT31;72973;51.784;4.660;2024-01-27T00:14:55;4.52;80.14
83102;SHT31;72973;51.784;4.660;2024-01-27T00:17:21;4.40;80.02
83102;SHT31;72973;51.784;4.660;2024-01-27T00:19:51;4.41;80.73
83102;SHT31;72973;51.784;4.660;2024-01-27T00:22:18;4.51;80.48
83102;SHT31;72973;51.784;4.660;2024-01-27T00:24:44;4.44;80.37
83102;SHT31;72973;51.784;4.660;2024-01-27T00:27:11;4.54;80.60
83102;SHT31;72973;51.784;4.660;2024-01-27T00:29:37;4.51;80.84
83102;SHT31;72973;51.784;4.660;2024-01-27T00:32:04;4.56;81.12
83102;SHT31;72973;51.784;4.660;2024-01-27T00:34:31;4.69;80.84
83102;SHT31;72973;51.784;4.660;2024-01-27T00:36:58;4.68;80.98
83102;SHT31;72973;51.784;4.660;2024-01-27T00:39:24;4.73;81.08
83102;SHT31;72973;51.784;4.660;2024-01-27T00:41:51;4.71;81.06
83102;SHT31;72973;51.784;4.660;2024-01-27T00:44:20;4.72;80.95
83102;SHT31;72973;51.784;4.660;2024-01-27T00:46:46;4.75;81.05
83102;SHT31;72973;51.784;4.660;2024-01-27T00:49:13;4.79;80.65
83102;SHT31;72973;51.784;4.660;2024-01-27T00:51:40;4.83;80.65
83102;SHT31;72973;51.784;4.660;2024-01-27T00:54:07;4.69;80.36
83102;SHT31;72973;51.784;4.660;2024-01-27T00:56:33;4.61;80.72
83102;SHT31;72973;51.784;4.660;2024-01-27T00:59:00;4.64;80.97
83102;SHT31;72973;51.784;4.660;2024-01-27T01:01:26;4.68;81.15
83102;SHT31;72973;51.784;4.660;2024-01-27T01:03:53;4.77;81.24
83102;SHT31;72973;51.784;4.660;2024-01-27T01:06:19;4.79;81.07
83102;SHT31;72973;51.784;4.660;2024-01-27T01:08:46;4.82;80.74
83102;SHT31;72973;51.784;4.660;2024-01-27T01:11:13;4.80;80.74
83102;SHT31;72973;51.784;4.660;2024-01-27T01:13:39;4.75;80.99
83102;SHT31;72973;51.784;4.660;2024-01-27T01:16:06;4.68;80.59
83102;SHT31;72973;51.784;4.660;2024-01-27T01:18:34;4.58;80.20
83102;SHT31;72973;51.784;4.660;2024-01-27T01:21:00;4.54;80.39
83102;SHT31;72973;51.784;4.660;2024-01-27T01:23:27;4.61;80.93
83102;SHT31;72973;51.784;4.660;2024-01-27T01:25:53;4.75;81.36
83102;SHT31;72973;51.784;4.660;2024-01-27T01:28:20;4.83;81.17
83102;SHT31;72973;51.784;4.660;2024-01-27T01:30:46;4.92;81.23
83102;SHT31;72973;51.784;4.660;2024-01-27T01:33:13;4.92;81.11
83102;SHT31;72973;51.784;4.660;2024-01-27T01:35:40;4.90;80.85
83102;SHT31;72973;51.784;4.660;2024-01-27T01:38:06;4.80;81.04
83102;SHT31;72973;51.784;4.660;2024-01-27T01:40:33;4.82;81.16
83102;SHT31;72973;51.784;4.660;2024-01-27T01:43:00;4.86;81.36
83102;SHT31;72973;51.784;4.660;2024-01-27T01:45:26;4.86;81.03
83102;SHT31;72973;51.784;4.660;2024-01-27T01:47:53;4.85;80.99
83102;SHT31;72973;51.784;4.660;2024-01-27T01:50:20;4.66;80.87
83102;SHT31;72973;51.784;4.660;2024-01-27T01:52:48;4.65;81.43
83102;SHT31;72973;51.784;4.660;2024-01-27T01:55:17;4.73;81.40
83102;SHT31;72973;51.784;4.660;2024-01-27T01:57:43;4.77;81.43
83102;SHT31;72973;51.784;4.660;2024-01-27T02:00:11;4.86;81.36
83102;SHT31;72973;51.784;4.660;2024-01-27T02:02:37;4.90;81.09
83102;SHT31;72973;51.784;4.660;2024-01-27T02:05:04;4.89;81.04
83102;SHT31;72973;51.784;4.660;2024-01-27T02:07:31;4.80;81.21
83102;SHT31;72973;51.784;4.660;2024-01-27T02:09:57;4.80;81.01
83102;SHT31;72973;51.784;4.660;2024-01-27T02:12:24;4.82;80.80
83102;SHT31;72973;51.784;4.660;2024-01-27T02:14:50;4.77;80.70
83102;SHT31;72973;51.784;4.660;2024-01-27T02:17:17;4.75;80.51
83102;SHT31;72973;51.784;4.660;2024-01-27T02:19:43;4.65;80.52
83102;SHT31;72973;51.784;4.660;2024-01-27T02:22:10;4.68;80.86
83102;SHT31;72973;51.784;4.660;2024-01-27T02:24:36;4.62;80.79
83102;SHT31;72973;51.784;4.660;2024-01-27T02:27:03;4.62;80.69
83102;SHT31;72973;51.784;4.660;2024-01-27T02:29:30;4.61;80.75
83102;SHT31;72973;51.784;4.660;2024-01-27T02:31:56;4.56;80.68
83102;SHT31;72973;51.784;4.660;2024-01-27T02:34:23;4.52;80.82
83102;SHT31;72973;51.784;4.660;2024-01-27T02:36:49;4.49;80.50
83102;SHT31;72973;51.784;4.660;2024-01-27T02:39:16;4.45;81.17
83102;SHT31;72973;51.784;4.660;2024-01-27T02:41:42;4.47;81.09
83102;SHT31;72973;51.784;4.660;2024-01-27T02:44:09;4.52;80.84
83102;SHT31;72973;51.784;4.660;2024-01-27T02:46:35;4.44;80.69
83102;SHT31;72973;51.784;4.660;2024-01-27T02:49:02;4.40;80.85
83102;SHT31;72973;51.784;4.660;2024-01-27T02:51:28;4.40;80.79
83102;SHT31;72973;51.784;4.660;2024-01-27T02:53:55;4.31;81.13
83102;SHT31;72973;51.784;4.660;2024-01-27T02:56:22;4.31;80.95
83102;SHT31;72973;51.784;4.660;2024-01-27T02:58:48;4.33;81.31
83102;SHT31;72973;51.784;4.660;2024-01-27T03:01:15;4.33;81.25
83102;SHT31;72973;51.784;4.660;2024-01-27T03:03:41;4.30;81.13
83102;SHT31;72973;51.784;4.660;2024-01-27T03:06:08;4.22;81.30
83102;SHT31;72973;51.784;4.660;2024-01-27T03:08:34;4.20;81.26
83102;SHT31;72973;51.784;4.660;2024-01-27T03:11:01;4.17;80.72
83102;SHT31;72973;51.784;4.660;2024-01-27T03:13:27;4.07;80.58
83102;SHT31;72973;51.784;4.660;2024-01-27T03:15:54;3.93;80.96
83102;SHT31;72973;51.784;4.660;2024-01-27T03:18:22;3.86;81.24
83102;SHT31;72973;51.784;4.660;2024-01-27T03:20:48;3.87;80.87
83102;SHT31;72973;51.784;4.660;2024-01-27T03:23:15;3.91;81.25
83102;SHT31;72973;51.784;4.660;2024-01-27T03:25:41;4.06;81.55
83102;SHT31;72973;51.784;4.660;2024-01-27T03:28:08;4.11;81.57
83102;SHT31;72973;51.784;4.660;2024-01-27T03:30:34;4.08;81.43
83102;SHT31;72973;51.784;4.660;2024-01-27T03:33:01;4.08;81.63
83102;SHT31;72973;51.784;4.660;2024-01-27T03:35:27;4.13;81.80
83102;SHT31;72973;51.784;4.660;2024-01-27T03:37:54;4.21;81.55
83102;SHT31;72973;51.784;4.660;2024-01-27T03:40:20;4.20;81.48
83102;SHT31;72973;51.784;4.660;2024-01-27T03:42:47;4.17;81.48
83102;SHT31;72973;51.784;4.660;2024-01-27T03:45:13;4.25;81.35
83102;SHT31;72973;51.784;4.660;2024-01-27T03:47:40;4.30;81.22
83102;SHT31;72973;51.784;4.660;2024-01-27T03:50:07;4.20;81.65
83102;SHT31;72973;51.784;4.660;2024-01-27T03:52:34;4.13;81.79
83102;SHT31;72973;51.784;4.660;2024-01-27T03:55:01;4.16;81.65
83102;SHT31;72973;51.784;4.660;2024-01-27T03:57:27;4.28;81.32
83102;SHT31;72973;51.784;4.660;2024-01-27T03:59:54;4.21;80.88
83102;SHT31;72973;51.784;4.660;2024-01-27T04:02:20;4.17;80.86
83102;SHT31;72973;51.784;4.660;2024-01-27T04:04:46;4.17;80.98
83102;SHT31;72973;51.784;4.660;2024-01-27T04:07:13;4.11;81.08
83102;SHT31;72973;51.784;4.660;2024-01-27T04:09:39;4.06;80.94
83102;SHT31;72973;51.784;4.660;2024-01-27T04:12:06;4.07;81.46
83102;SHT31;72973;51.784;4.660;2024-01-27T04:14:33;4.07;81.02
83102;SHT31;72973;51.784;4.660;2024-01-27T04:16:59;4.04;80.95
83102;SHT31;72973;51.784;4.660;2024-01-27T04:19:26;3.90;80.77
83102;SHT31;72973;51.784;4.660;2024-01-27T04:21:52;3.93;81.15
83102;SHT31;72973;51.784;4.660;2024-01-27T04:24:19;3.96;81.31
83102;SHT31;72973;51.784;4.660;2024-01-27T04:26:45;3.86;80.98
83102;SHT31;72973;51.784;4.660;2024-01-27T04:29:12;3.90;81.73
83102;SHT31;72973;51.784;4.660;2024-01-27T04:31:41;3.90;81.61
83102;SHT31;72973;51.784;4.660;2024-01-27T04:34:11;3.97;81.44
83102;SHT31;72973;51.784;4.660;2024-01-27T04:36:37;3.96;81.82
83102;SHT31;72973;51.784;4.660;2024-01-27T04:39:04;4.03;81.56
83102;SHT31;72973;51.784;4.660;2024-01-27T04:41:30;3.99;81.65
83102;SHT31;72973;51.784;4.660;2024-01-27T04:43:57;4.04;82.01
83102;SHT31;72973;51.784;4.660;2024-01-27T04:46:25;4.04;81.69
83102;SHT31;72973;51.784;4.660;2024-01-27T04:48:52;4.14;81.68
83102;SHT31;72973;51.784;4.660;2024-01-27T04:51:18;4.08;81.62
83102;SHT31;72973;51.784;4.660;2024-01-27T04:53:44;4.04;81.88
83102;SHT31;72973;51.784;4.660;2024-01-27T04:56:11;4.08;81.43
83102;SHT31;72973;51.784;4.660;2024-01-27T04:58:39;3.97;81.54
83102;SHT31;72973;51.784;4.660;2024-01-27T05:01:05;3.90;81.30
83102;SHT31;72973;51.784;4.660;2024-01-27T05:03:32;3.89;81.52
83102;SHT31;72973;51.784;4.660;2024-01-27T05:05:59;3.85;81.49
83102;SHT31;72973;51.784;4.660;2024-01-27T05:08:26;3.72;81.07
83102;SHT31;72973;51.784;4.660;2024-01-27T05:10:52;3.66;81.18
83102;SHT31;72973;51.784;4.660;2024-01-27T05:13:19;3.68;81.35
83102;SHT31;72973;51.784;4.660;2024-01-27T05:15:46;3.62;81.46
83102;SHT31;72973;51.784;4.660;2024-01-27T05:18:13;3.55;81.26
83102;SHT31;72973;51.784;4.660;2024-01-27T05:20:39;3.48;81.77
83102;SHT31;72973;51.784;4.660;2024-01-27T05:23:05;3.49;81.64
83102;SHT31;72973;51.784;4.660;2024-01-27T05:25:32;3.49;81.46
83102;SHT31;72973;51.784;4.660;2024-01-27T05:27:58;3.45;81.37
83102;SHT31;72973;51.784;4.660;2024-01-27T05:30:25;3.42;81.40
83102;SHT31;72973;51.784;4.660;2024-01-27T05:32:51;3.38;81.26
83102;SHT31;72973;51.784;4.660;2024-01-27T05:35:18;3.32;81.29
83102;SHT31;72973;51.784;4.660;2024-01-27T05:37:44;3.28;81.37
83102;SHT31;72973;51.784;4.660;2024-01-27T05:40:11;3.24;81.39
83102;SHT31;72973;51.784;4.660;2024-01-27T05:42:38;3.24;81.33
83102;SHT31;72973;51.784;4.660;2024-01-27T05:45:07;3.21;81.49
83102;SHT31;72973;51.784;4.660;2024-01-27T05:47:34;3.18;81.32
83102;SHT31;72973;51.784;4.660;2024-01-27T05:50:00;3.14;81.22
83102;SHT31;72973;51.784;4.660;2024-01-27T05:52:27;3.17;81.28
83102;SHT31;72973;51.784;4.660;2024-01-27T05:54:53;3.17;81.41
83102;SHT31;72973;51.784;4.660;2024-01-27T05:57:20;3.11;81.75
83102;SHT31;72973;51.784;4.660;2024-01-27T05:59:47;3.15;81.62
83102;SHT31;72973;51.784;4.660;2024-01-27T06:02:13;3.11;81.45
83102;SHT31;72973;51.784;4.660;2024-01-27T06:04:40;3.14;81.87
83102;SHT31;72973;51.784;4.660;2024-01-27T06:07:06;3.10;81.44
83102;SHT31;72973;51.784;4.660;2024-01-27T06:09:33;2.99;81.50
83102;SHT31;72973;51.784;4.660;2024-01-27T06:11:59;2.94;81.25
83102;SHT31;72973;51.784;4.660;2024-01-27T06:14:26;2.84;81.39
83102;SHT31;72973;51.784;4.660;2024-01-27T06:16:53;2.84;81.64
83102;SHT31;72973;51.784;4.660;2024-01-27T06:19:20;2.79;81.35
83102;SHT31;72973;51.784;4.660;2024-01-27T06:21:46;2.82;81.71
83102;SHT31;72973;51.784;4.660;2024-01-27T06:24:13;2.82;81.57
83102;SHT31;72973;51.784;4.660;2024-01-27T06:26:39;2.82;81.59
83102;SHT31;72973;51.784;4.660;2024-01-27T06:29:06;2.72;81.45
83102;SHT31;72973;51.784;4.660;2024-01-27T06:31:32;2.62;81.76
83102;SHT31;72973;51.784;4.660;2024-01-27T06:33:59;2.72;82.12
83102;SHT31;72973;51.784;4.660;2024-01-27T06:36:26;2.73;81.88
83102;SHT31;72973;51.784;4.660;2024-01-27T06:38:53;2.73;82.42
83102;SHT31;72973;51.784;4.660;2024-01-27T06:41:20;2.83;82.32
83102;SHT31;72973;51.784;4.660;2024-01-27T06:43:47;2.90;82.23
83102;SHT31;72973;51.784;4.660;2024-01-27T06:46:13;2.92;82.49
83102;SHT31;72973;51.784;4.660;2024-01-27T06:48:40;2.93;82.82
83102;SHT31;72973;51.784;4.660;2024-01-27T06:51:06;2.86;82.82
83102;SHT31;72973;51.784;4.660;2024-01-27T06:53:33;2.84;82.24
83102;SHT31;72973;51.784;4.660;2024-01-27T06:55:59;2.80;81.72
83102;SHT31;72973;51.784;4.660;2024-01-27T06:58:26;2.77;82.35
83102;SHT31;72973;51.784;4.660;2024-01-27T07:00:53;2.76;81.78
83102;SHT31;72973;51.784;4.660;2024-01-27T07:03:20;2.72;82.09
83102;SHT31;72973;51.784;4.660;2024-01-27T07:05:46;2.79;82.42
83102;SHT31;72973;51.784;4.660;2024-01-27T07:08:13;2.93;83.03
83102;SHT31;72973;51.784;4.660;2024-01-27T07:10:39;3.03;83.14
83102;SHT31;72973;51.784;4.660;2024-01-27T07:13:06;3.25;83.46
83102;SHT31;72973;51.784;4.660;2024-01-27T07:15:32;3.36;83.58
83102;SHT31;72973;51.784;4.660;2024-01-27T07:17:59;3.48;83.20
83102;SHT31;72973;51.784;4.660;2024-01-27T07:20:25;3.55;83.20
83102;SHT31;72973;51.784;4.660;2024-01-27T07:22:52;3.69;83.05
83102;SHT31;72973;51.784;4.660;2024-01-27T07:25:18;3.79;82.85
83102;SHT31;72973;51.784;4.660;2024-01-27T07:27:45;3.78;82.79
83102;SHT31;72973;51.784;4.660;2024-01-27T07:30:12;3.79;82.69
83102;SHT31;72973;51.784;4.660;2024-01-27T07:32:42;3.82;82.69
83102;SHT31;72973;51.784;4.660;2024-01-27T07:35:10;3.86;82.32
83102;SHT31;72973;51.784;4.660;2024-01-27T07:37:36;3.83;82.20
83102;SHT31;72973;51.784;4.660;2024-01-27T07:40:04;3.80;82.23
83102;SHT31;72973;51.784;4.660;2024-01-27T07:42:31;3.82;82.34
83102;SHT31;72973;51.784;4.660;2024-01-27T07:44:58;3.82;82.47
83102;SHT31;72973;51.784;4.660;2024-01-27T07:47:25;3.86;82.09
83102;SHT31;72973;51.784;4.660;2024-01-27T07:49:51;3.76;81.91
83102;SHT31;72973;51.784;4.660;2024-01-27T07:52:18;3.72;81.66
83102;SHT31;72973;51.784;4.660;2024-01-27T07:54:45;3.63;81.49
83102;SHT31;72973;51.784;4.660;2024-01-27T07:57:12;3.56;81.68
83102;SHT31;72973;51.784;4.660;2024-01-27T07:59:39;3.59;81.82
83102;SHT31;72973;51.784;4.660;2024-01-27T08:02:05;3.69;82.50
83102;SHT31;72973;51.784;4.660;2024-01-27T08:04:32;3.73;82.02
83102;SHT31;72973;51.784;4.660;2024-01-27T08:07:02;3.63;81.47
83102;SHT31;72973;51.784;4.660;2024-01-27T08:09:32;3.61;81.55
83102;SHT31;72973;51.784;4.660;2024-01-27T08:11:59;3.55;81.67
83102;SHT31;72973;51.784;4.660;2024-01-27T08:14:26;3.55;81.62
83102;SHT31;72973;51.784;4.660;2024-01-27T08:16:52;3.58;82.14
83102;SHT31;72973;51.784;4.660;2024-01-27T08:19:19;3.65;82.13
83102;SHT31;72973;51.784;4.660;2024-01-27T08:21:47;3.70;82.12
83102;SHT31;72973;51.784;4.660;2024-01-27T08:24:14;3.80;82.31
83102;SHT31;72973;51.784;4.660;2024-01-27T08:26:41;3.87;82.17
83102;SHT31;72973;51.784;4.660;2024-01-27T08:29:09;3.87;82.24
83102;SHT31;72973;51.784;4.660;2024-01-27T08:31:35;3.86;82.10
83102;SHT31;72973;51.784;4.660;2024-01-27T08:34:04;3.87;82.15
83102;SHT31;72973;51.784;4.660;2024-01-27T08:36:31;3.91;82.27
83102;SHT31;72973;51.784;4.660;2024-01-27T08:39:00;4.01;82.25
83102;SHT31;72973;51.784;4.660;2024-01-27T08:41:27;3.97;82.27
83102;SHT31;72973;51.784;4.660;2024-01-27T08:43:53;4.03;82.05
83102;SHT31;72973;51.784;4.660;2024-01-27T08:46:20;4.01;82.09
83102;SHT31;72973;51.784;4.660;2024-01-27T08:48:48;4.10;82.39
83102;SHT31;72973;51.784;4.660;2024-01-27T08:51:15;4.18;82.45
83102;SHT31;72973;51.784;4.660;2024-01-27T08:53:43;4.34;82.53
83102;SHT31;72973;51.784;4.660;2024-01-27T08:56:15;4.48;82.56
83102;SHT31;72973;51.784;4.660;2024-01-27T08:58:43;4.75;82.51
83102;SHT31;72973;51.784;4.660;2024-01-27T09:01:10;4.83;82.36
83102;SHT31;72973;51.784;4.660;2024-01-27T09:03:39;4.95;82.25
83102;SHT31;72973;51.784;4.660;2024-01-27T09:06:07;5.07;81.76
83102;SHT31;72973;51.784;4.660;2024-01-27T09:08:37;5.09;81.78
83102;SHT31;72973;51.784;4.660;2024-01-27T09:11:03;5.19;81.17
83102;SHT31;72973;51.784;4.660;2024-01-27T09:13:30;5.12;81.43
83102;SHT31;72973;51.784;4.660;2024-01-27T09:15:57;5.22;81.03
83102;SHT31;72973;51.784;4.660;2024-01-27T09:18:26;5.26;80.71
83102;SHT31;72973;51.784;4.660;2024-01-27T09:20:53;5.24;81.05
83102;SHT31;72973;51.784;4.660;2024-01-27T09:23:19;5.44;80.42
83102;SHT31;72973;51.784;4.660;2024-01-27T09:25:45;5.43;80.58
83102;SHT31;72973;51.784;4.660;2024-01-27T09:28:12;5.45;80.35
83102;SHT31;72973;51.784;4.660;2024-01-27T09:30:39;5.51;80.19
83102;SHT31;72973;51.784;4.660;2024-01-27T09:33:06;5.58;80.04
83102;SHT31;72973;51.784;4.660;2024-01-27T09:35:32;5.65;80.16
83102;SHT31;72973;51.784;4.660;2024-01-27T09:37:59;5.66;79.67
83102;SHT31;72973;51.784;4.660;2024-01-27T09:40:25;5.63;80.36
83102;SHT31;72973;51.784;4.660;2024-01-27T09:42:52;5.73;80.20
83102;SHT31;72973;51.784;4.660;2024-01-27T09:45:23;5.79;79.93
83102;SHT31;72973;51.784;4.660;2024-01-27T09:47:51;5.85;79.92
83102;SHT31;72973;51.784;4.660;2024-01-27T09:50:19;5.93;79.93
83102;SHT31;72973;51.784;4.660;2024-01-27T09:52:48;6.05;79.53
83102;SHT31;72973;51.784;4.660;2024-01-27T09:55:15;6.03;79.41
83102;SHT31;72973;51.784;4.660;2024-01-27T09:57:44;6.09;79.61
83102;SHT31;72973;51.784;4.660;2024-01-27T10:00:11;6.17;79.42
83102;SHT31;72973;51.784;4.660;2024-01-27T10:02:39;6.17;79.79
83102;SHT31;72973;51.784;4.660;2024-01-27T10:05:10;6.29;79.46
83102;SHT31;72973;51.784;4.660;2024-01-27T10:07:39;6.41;78.67
83102;SHT31;72973;51.784;4.660;2024-01-27T10:10:06;6.36;78.61
83102;SHT31;72973;51.784;4.660;2024-01-27T10:12:40;6.45;78.23
83102;SHT31;72973;51.784;4.660;2024-01-27T10:15:21;6.55;78.43
83102;SHT31;72973;51.784;4.660;2024-01-27T10:17:48;6.64;78.29
83102;SHT31;72973;51.784;4.660;2024-01-27T10:20:15;6.69;77.79
83102;SHT31;72973;51.784;4.660;2024-01-27T10:22:43;6.75;77.89
83102;SHT31;72973;51.784;4.660;2024-01-27T10:25:12;6.79;77.66
83102;SHT31;72973;51.784;4.660;2024-01-27T10:27:39;6.92;77.42
83102;SHT31;72973;51.784;4.660;2024-01-27T10:30:16;6.99;77.31
83102;SHT31;72973;51.784;4.660;2024-01-27T10:32:43;6.99;76.05
83102;SHT31;72973;51.784;4.660;2024-01-27T10:35:10;7.05;75.77
83102;SHT31;72973;51.784;4.660;2024-01-27T10:37:37;7.10;76.87
83102;SHT31;72973;51.784;4.660;2024-01-27T10:40:06;7.05;75.90
83102;SHT31;72973;51.784;4.660;2024-01-27T10:42:37;7.09;76.08
83102;SHT31;72973;51.784;4.660;2024-01-27T10:45:05;7.09;76.64
83102;SHT31;72973;51.784;4.660;2024-01-27T10:47:32;7.20;76.44
83102;SHT31;72973;51.784;4.660;2024-01-27T10:50:00;7.23;75.75
83102;SHT31;72973;51.784;4.660;2024-01-27T10:52:47;7.26;75.44
83102;SHT31;72973;51.784;4.660;2024-01-27T10:55:14;7.23;75.36
83102;SHT31;72973;51.784;4.660;2024-01-27T10:57:44;7.30;75.62
83102;SHT31;72973;51.784;4.660;2024-01-27T11:00:13;7.38;75.95
83102;SHT31;72973;51.784;4.660;2024-01-27T11:02:41;7.38;75.68
83102;SHT31;72973;51.784;4.660;2024-01-27T11:05:10;7.50;75.49
83102;SHT31;72973;51.784;4.660;2024-01-27T11:07:38;7.57;75.15
83102;SHT31;72973;51.784;4.660;2024-01-27T11:10:05;7.96;75.17
83102;SHT31;72973;51.784;4.660;2024-01-27T11:12:35;8.41;74.06
83102;SHT31;72973;51.784;4.660;2024-01-27T11:15:02;8.70;72.17
83102;SHT31;72973;51.784;4.660;2024-01-27T11:17:39;8.81;71.84
83102;SHT31;72973;51.784;4.660;2024-01-27T11:20:10;9.02;70.31
83102;SHT31;72973;51.784;4.660;2024-01-27T11:22:42;8.89;70.42
83102;SHT31;72973;51.784;4.660;2024-01-27T11:27:36;9.02;70.29
83102;SHT31;72973;51.784;4.660;2024-01-27T11:30:04;9.08;70.57
83102;SHT31;72973;51.784;4.660;2024-01-27T11:32:31;9.15;69.86
83102;SHT31;72973;51.784;4.660;2024-01-27T11:35:00;9.22;69.71
83102;SHT31;72973;51.784;4.660;2024-01-27T11:37:31;9.50;69.26
83102;SHT31;72973;51.784;4.660;2024-01-27T11:40:04;9.53;68.53
83102;SHT31;72973;51.784;4.660;2024-01-27T11:42:34;9.30;68.93
83102;SHT31;72973;51.784;4.660;2024-01-27T11:45:01;9.16;69.45
83102;SHT31;72973;51.784;4.660;2024-01-27T11:47:27;9.26;69.32
83102;SHT31;72973;51.784;4.660;2024-01-27T11:49:55;9.27;69.67
83102;SHT31;72973;51.784;4.660;2024-01-27T11:52:24;9.40;69.59
83102;SHT31;72973;51.784;4.660;2024-01-27T11:55:01;9.66;69.07
83102;SHT31;72973;51.784;4.660;2024-01-27T11:57:28;9.63;68.47
83102;SHT31;72973;51.784;4.660;2024-01-27T11:59:55;9.60;69.09
83102;SHT31;72973;51.784;4.660;2024-01-27T12:02:22;9.63;68.44
83102;SHT31;72973;51.784;4.660;2024-01-27T12:04:48;9.77;68.40
83102;SHT31;72973;51.784;4.660;2024-01-27T12:07:16;10.04;67.88
83102;SHT31;72973;51.784;4.660;2024-01-27T12:09:45;10.48;67.21
83102;SHT31;72973;51.784;4.660;2024-01-27T12:12:13;10.63;66.69
83102;SHT31;72973;51.784;4.660;2024-01-27T12:14:50;10.19;67.30
83102;SHT31;72973;51.784;4.660;2024-01-27T12:17:18;9.84;68.15
83102;SHT31;72973;51.784;4.660;2024-01-27T12:19:47;9.50;68.84
83102;SHT31;72973;51.784;4.660;2024-01-27T12:22:40;9.36;69.71
83102;SHT31;72973;51.784;4.660;2024-01-27T12:25:11;9.25;69.40
83102;SHT31;72973;51.784;4.660;2024-01-27T12:27:40;9.26;69.81
83102;SHT31;72973;51.784;4.660;2024-01-27T12:30:08;9.26;69.40
83102;SHT31;72973;51.784;4.660;2024-01-27T12:32:34;9.26;69.49
83102;SHT31;72973;51.784;4.660;2024-01-27T12:35:08;9.19;70.23
83102;SHT31;72973;51.784;4.660;2024-01-27T12:37:35;9.22;70.19
83102;SHT31;72973;51.784;4.660;2024-01-27T12:40:21;9.40;70.07
83102;SHT31;72973;51.784;4.660;2024-01-27T12:42:48;9.43;70.16
83102;SHT31;72973;51.784;4.660;2024-01-27T12:45:15;9.50;69.76
83102;SHT31;72973;51.784;4.660;2024-01-27T12:47:42;9.57;70.21
83102;SHT31;72973;51.784;4.660;2024-01-27T12:50:09;9.71;69.57
83102;SHT31;72973;51.784;4.660;2024-01-27T12:52:36;9.81;69.25
83102;SHT31;72973;51.784;4.660;2024-01-27T12:55:04;9.80;68.92
83102;SHT31;72973;51.784;4.660;2024-01-27T12:57:31;9.73;68.85
83102;SHT31;72973;51.784;4.660;2024-01-27T12:59:57;9.67;69.48
83102;SHT31;72973;51.784;4.660;2024-01-27T13:02:24;9.66;69.17
83102;SHT31;72973;51.784;4.660;2024-01-27T13:04:51;9.58;69.07
83102;SHT31;72973;51.784;4.660;2024-01-27T13:07:17;9.44;69.19
83102;SHT31;72973;51.784;4.660;2024-01-27T13:09:44;9.35;69.37
83102;SHT31;72973;51.784;4.660;2024-01-27T13:12:10;9.30;69.94
83102;SHT31;72973;51.784;4.660;2024-01-27T13:14:37;9.19;69.70
83102;SHT31;72973;51.784;4.660;2024-01-27T13:17:04;9.16;70.38
83102;SHT31;72973;51.784;4.660;2024-01-27T13:19:31;9.11;70.26
83102;SHT31;72973;51.784;4.660;2024-01-27T13:21:57;9.25;69.91
83102;SHT31;72973;51.784;4.660;2024-01-27T13:24:24;9.22;70.14
83102;SHT31;72973;51.784;4.660;2024-01-27T13:26:52;9.26;70.19
83102;SHT31;72973;51.784;4.660;2024-01-27T13:29:19;9.33;70.14
83102;SHT31;72973;51.784;4.660;2024-01-27T13:31:46;9.43;69.91
83102;SHT31;72973;51.784;4.660;2024-01-27T13:34:13;9.43;69.20
83102;SHT31;72973;51.784;4.660;2024-01-27T13:36:40;9.37;69.35
83102;SHT31;72973;51.784;4.660;2024-01-27T13:39:07;9.29;69.47
83102;SHT31;72973;51.784;4.660;2024-01-27T13:41:34;9.29;69.75
83102;SHT31;72973;51.784;4.660;2024-01-27T13:44:00;9.33;69.98
83102;SHT31;72973;51.784;4.660;2024-01-27T13:46:28;9.37;69.67
83102;SHT31;72973;51.784;4.660;2024-01-27T13:48:54;9.43;69.74
83102;SHT31;72973;51.784;4.660;2024-01-27T13:51:21;9.40;69.88
83102;SHT31;72973;51.784;4.660;2024-01-27T13:53:48;9.42;70.31
83102;SHT31;72973;51.784;4.660;2024-01-27T13:56:15;9.46;70.05
83102;SHT31;72973;51.784;4.660;2024-01-27T13:58:42;9.50;69.93
83102;SHT31;72973;51.784;4.660;2024-01-27T14:01:09;9.50;69.84
83102;SHT31;72973;51.784;4.660;2024-01-27T14:03:35;9.53;69.94
83102;SHT31;72973;51.784;4.660;2024-01-27T14:06:03;9.44;70.03
83102;SHT31;72973;51.784;4.660;2024-01-27T14:08:30;9.48;70.18
83102;SHT31;72973;51.784;4.660;2024-01-27T14:10:56;9.54;70.14
83102;SHT31;72973;51.784;4.660;2024-01-27T14:13:23;9.53;70.25
83102;SHT31;72973;51.784;4.660;2024-01-27T14:15:49;9.43;70.68
83102;SHT31;72973;51.784;4.660;2024-01-27T14:18:16;9.47;70.51
83102;SHT31;72973;51.784;4.660;2024-01-27T14:20:47;9.47;70.36
83102;SHT31;72973;51.784;4.660;2024-01-27T14:23:15;9.40;70.35
83102;SHT31;72973;51.784;4.660;2024-01-27T14:25:42;9.37;70.14
83102;SHT31;72973;51.784;4.660;2024-01-27T14:28:09;9.43;70.07
83102;SHT31;72973;51.784;4.660;2024-01-27T14:30:37;9.48;69.96
83102;SHT31;72973;51.784;4.660;2024-01-27T14:33:06;9.37;69.85
83102;SHT31;72973;51.784;4.660;2024-01-27T14:35:32;9.40;69.89
83102;SHT31;72973;51.784;4.660;2024-01-27T14:37:59;9.42;69.90
83102;SHT31;72973;51.784;4.660;2024-01-27T14:40:27;9.39;69.90
83102;SHT31;72973;51.784;4.660;2024-01-27T14:42:54;9.47;69.95
83102;SHT31;72973;51.784;4.660;2024-01-27T14:45:20;9.47;69.88
83102;SHT31;72973;51.784;4.660;2024-01-27T14:47:47;9.36;69.51
83102;SHT31;72973;51.784;4.660;2024-01-27T14:50:14;9.32;69.64
83102;SHT31;72973;51.784;4.660;2024-01-27T14:52:40;9.26;69.96
83102;SHT31;72973;51.784;4.660;2024-01-27T14:55:07;9.27;69.79
83102;SHT31;72973;51.784;4.660;2024-01-27T14:57:37;9.27;69.88
83102;SHT31;72973;51.784;4.660;2024-01-27T15:00:04;9.25;70.01
83102;SHT31;72973;51.784;4.660;2024-01-27T15:02:31;9.19;70.38
83102;SHT31;72973;51.784;4.660;2024-01-27T15:04:57;9.16;70.37
83102;SHT31;72973;51.784;4.660;2024-01-27T15:07:24;9.16;70.44
83102;SHT31;72973;51.784;4.660;2024-01-27T15:09:55;9.09;70.87
83102;SHT31;72973;51.784;4.660;2024-01-27T15:12:22;9.02;71.23
83102;SHT31;72973;51.784;4.660;2024-01-27T15:14:50;9.04;71.78
83102;SHT31;72973;51.784;4.660;2024-01-27T15:17:18;8.89;72.50
83102;SHT31;72973;51.784;4.660;2024-01-27T15:19:45;8.87;72.73
83102;SHT31;72973;51.784;4.660;2024-01-27T15:22:11;8.71;73.16
83102;SHT31;72973;51.784;4.660;2024-01-27T15:24:38;8.77;73.09
83102;SHT31;72973;51.784;4.660;2024-01-27T15:27:06;8.68;73.20
83102;SHT31;72973;51.784;4.660;2024-01-27T15:29:32;8.67;73.31
83102;SHT31;72973;51.784;4.660;2024-01-27T15:31:59;8.64;73.38
83102;SHT31;72973;51.784;4.660;2024-01-27T15:34:25;8.60;73.67
83102;SHT31;72973;51.784;4.660;2024-01-27T15:36:52;8.57;73.88
83102;SHT31;72973;51.784;4.660;2024-01-27T15:39:18;8.51;74.09
83102;SHT31;72973;51.784;4.660;2024-01-27T15:41:45;8.50;74.23
83102;SHT31;72973;51.784;4.660;2024-01-27T15:44:11;8.40;74.42
83102;SHT31;72973;51.784;4.660;2024-01-27T15:46:38;8.36;74.58